createdAt,value
2023-03-07T00:01:42.145Z,2.25
2023-03-07T00:06:43.663Z,2.26
2023-03-07T00:11:45.069Z,2.32
2023-03-07T00:16:46.473Z,2.41
2023-03-07T00:21:47.982Z,2.48
2023-03-07T00:26:49.387Z,2.49
2023-03-07T00:31:50.944Z,2.51
2023-03-07T00:36:52.886Z,2.51
2023-03-07T00:41:54.278Z,2.52
2023-03-07T00:46:56.322Z,2.49
2023-03-07T00:51:57.812Z,2.44
2023-03-07T00:56:59.832Z,2.39
2023-03-07T01:02:01.402Z,2.40
2023-03-07T01:07:02.970Z,2.46
2023-03-07T01:12:07.122Z,2.53
2023-03-07T01:17:08.571Z,2.62
2023-03-07T01:22:10.632Z,2.68
2023-03-07T01:27:12.202Z,2.76
2023-03-07T01:32:14.224Z,2.77
2023-03-07T01:37:15.904Z,2.77
2023-03-07T01:42:17.338Z,2.76
2023-03-07T01:47:18.968Z,2.74
2023-03-07T01:52:39.660Z,2.73
2023-03-07T01:57:45.770Z,2.70
2023-03-07T02:02:51.710Z,2.65
2023-03-07T02:07:59.591Z,2.62
2023-03-07T02:13:03.844Z,2.61
2023-03-07T02:18:06.439Z,2.61
2023-03-07T02:23:13.618Z,2.62
2023-03-07T02:28:17.273Z,2.64
2023-03-07T02:33:18.927Z,2.65
2023-03-07T02:38:22.598Z,2.64
2023-03-07T02:43:24.852Z,2.61
2023-03-07T02:48:26.294Z,2.60
2023-03-07T02:53:28.272Z,2.56
2023-03-07T02:58:29.882Z,2.52
2023-03-07T03:03:31.464Z,2.47
2023-03-07T03:08:32.897Z,2.40
2023-03-07T03:13:34.706Z,2.38
2023-03-07T03:18:38.537Z,2.35
2023-03-07T03:23:40.792Z,2.31
2023-03-07T03:28:44.092Z,2.30
2023-03-07T03:33:45.866Z,2.28
2023-03-07T03:38:47.644Z,2.27
2023-03-07T03:43:49.318Z,2.29
2023-03-07T03:48:53.349Z,2.29
2023-03-07T03:53:59.610Z,2.28
2023-03-07T03:59:01.980Z,2.26
2023-03-07T04:04:04.800Z,2.24
2023-03-07T04:09:06.522Z,2.23
2023-03-07T04:14:10.442Z,2.21
2023-03-07T04:19:12.936Z,2.21
2023-03-07T04:24:14.502Z,2.23
2023-03-07T04:29:16.239Z,2.25
2023-03-07T04:34:24.422Z,2.30
2023-03-07T04:39:26.028Z,2.32
2023-03-07T04:44:27.688Z,2.35
2023-03-07T04:49:29.186Z,2.40
2023-03-07T04:54:30.744Z,2.44
2023-03-07T04:59:36.089Z,2.44
2023-03-07T05:04:37.709Z,2.48
2023-03-07T05:09:39.344Z,2.52
2023-03-07T05:14:40.861Z,2.58
2023-03-07T05:19:42.656Z,2.59
2023-03-07T05:24:44.638Z,2.64
2023-03-07T05:29:46.434Z,2.70
2023-03-07T05:34:48.119Z,2.71
2023-03-07T05:39:52.390Z,2.72
2023-03-07T05:44:53.883Z,2.72
2023-03-07T05:49:55.715Z,2.74
2023-03-07T05:54:57.533Z,2.73
2023-03-07T05:59:59.366Z,2.72
2023-03-07T06:05:00.955Z,2.68
2023-03-07T06:10:02.566Z,2.66
2023-03-07T06:15:05.010Z,2.64
2023-03-07T06:20:09.818Z,2.61
2023-03-07T06:25:11.475Z,2.58
2023-03-07T06:30:13.532Z,2.47
2023-03-07T06:35:16.242Z,2.44
2023-03-07T06:40:17.813Z,2.47
2023-03-07T06:45:19.456Z,2.52
2023-03-07T06:50:34.522Z,2.66
2023-03-07T06:55:37.286Z,2.70
2023-03-07T07:00:38.965Z,2.76
2023-03-07T07:05:40.725Z,2.83
2023-03-07T07:10:42.306Z,2.90
2023-03-07T07:15:46.987Z,2.96
2023-03-07T07:20:56.035Z,3.04
2023-03-07T07:25:58.694Z,3.16
2023-03-07T07:31:00.312Z,3.28
2023-03-07T07:36:03.332Z,3.33
2023-03-07T07:41:05.837Z,3.39
2023-03-07T07:46:08.801Z,3.46
2023-03-07T07:51:10.706Z,3.49
2023-03-07T07:56:13.258Z,3.50
2023-03-07T08:01:23.793Z,3.51
2023-03-07T08:06:27.780Z,3.52
2023-03-07T08:11:29.245Z,3.56
2023-03-07T08:16:30.694Z,3.58
2023-03-07T08:21:32.192Z,3.63
2023-03-07T08:26:33.684Z,3.68
2023-03-07T08:31:35.432Z,3.79
2023-03-07T08:36:37.110Z,3.99
2023-03-07T08:41:39.098Z,4.16
2023-03-07T08:46:40.624Z,4.32
2023-03-07T08:51:42.130Z,4.41
2023-03-07T08:56:43.530Z,4.53
2023-03-07T09:01:45.044Z,4.70
2023-03-07T09:06:46.486Z,4.75
2023-03-07T09:11:48.200Z,4.83
2023-03-07T09:16:49.989Z,4.86
2023-03-07T09:21:51.470Z,4.89
2023-03-07T09:26:52.979Z,4.98
2023-03-07T09:31:54.597Z,5.03
2023-03-07T09:36:56.046Z,5.20
2023-03-07T09:42:11.200Z,5.35
2023-03-07T09:47:50.325Z,5.38
2023-03-07T09:52:57.568Z,5.47
2023-03-07T09:58:03.863Z,5.59
2023-03-07T10:03:33.846Z,5.72
2023-03-07T10:08:35.330Z,5.77
2023-03-07T10:13:47.678Z,5.82
2023-03-07T10:18:54.989Z,5.81
2023-03-07T10:24:14.397Z,5.84
2023-03-07T10:29:22.405Z,5.94
2023-03-07T10:34:32.041Z,6.04
2023-03-07T10:39:44.697Z,6.30
2023-03-07T10:44:48.784Z,6.39
2023-03-07T10:49:54.437Z,6.46
2023-03-07T10:55:34.530Z,6.56
2023-03-07T11:00:37.381Z,6.69
2023-03-07T11:05:40.584Z,6.75
2023-03-07T11:10:42.042Z,6.85
2023-03-07T11:15:45.098Z,6.93
2023-03-07T11:20:48.573Z,6.97
2023-03-07T11:25:51.007Z,7.01
2023-03-07T11:30:58.159Z,7.10
2023-03-07T11:36:13.846Z,7.20
2023-03-07T11:41:26.840Z,7.00
2023-03-07T11:46:41.095Z,6.72
2023-03-07T11:52:00.673Z,6.65
2023-03-07T11:57:50.339Z,6.63
2023-03-07T12:03:21.199Z,6.65
2023-03-07T12:08:40.526Z,6.80
2023-03-07T12:13:49.776Z,6.90
2023-03-07T12:19:22.358Z,7.03
2023-03-07T12:24:28.866Z,7.10
2023-03-07T12:29:38.030Z,7.09
2023-03-07T12:34:49.627Z,7.08
2023-03-07T12:39:57.710Z,7.07
2023-03-07T12:45:24.370Z,7.21
2023-03-07T12:50:33.977Z,7.50
2023-03-07T12:55:47.540Z,7.62
2023-03-07T13:00:56.020Z,7.55
2023-03-07T13:05:57.900Z,7.41
2023-03-07T13:10:59.382Z,7.34
2023-03-07T13:16:05.023Z,7.36
2023-03-07T13:21:12.374Z,7.31
2023-03-07T13:26:22.639Z,7.47
2023-03-07T13:31:28.980Z,7.62
2023-03-07T13:36:34.436Z,7.67
2023-03-07T13:41:50.057Z,7.73
2023-03-07T13:46:54.058Z,7.77
2023-03-07T13:52:32.258Z,7.76
2023-03-07T13:57:38.104Z,7.72
2023-03-07T14:02:43.457Z,7.71
2023-03-07T14:07:51.341Z,7.69
2023-03-07T14:13:05.558Z,7.52
2023-03-07T14:18:25.492Z,7.40
2023-03-07T14:23:56.233Z,7.27
2023-03-07T14:29:02.114Z,7.09
2023-03-07T14:34:31.434Z,6.99
2023-03-07T14:40:08.666Z,6.83
2023-03-07T14:45:19.875Z,6.63
2023-03-07T14:50:29.589Z,6.65
2023-03-07T14:55:43.067Z,6.55
2023-03-07T15:00:44.809Z,6.52
2023-03-07T15:05:47.948Z,6.46
2023-03-07T15:10:58.382Z,6.41
2023-03-07T15:16:03.591Z,6.50
2023-03-07T15:21:07.783Z,6.57
2023-03-07T15:26:14.952Z,6.60
2023-03-07T15:31:16.457Z,6.61
2023-03-07T15:36:24.556Z,6.60
2023-03-07T15:41:36.184Z,6.57
2023-03-07T15:46:50.711Z,6.47
2023-03-07T15:51:55.453Z,6.37
2023-03-07T15:57:00.455Z,6.34
2023-03-07T16:02:33.261Z,6.30
2023-03-07T16:07:34.846Z,6.25
2023-03-07T16:12:39.452Z,6.21
2023-03-07T16:17:41.752Z,6.20
2023-03-07T16:22:44.387Z,6.14
2023-03-07T16:27:58.144Z,6.09
2023-03-07T16:32:59.691Z,6.05
2023-03-07T16:38:01.513Z,6.06
2023-03-07T16:43:03.128Z,6.04
2023-03-07T16:48:04.832Z,6.04
2023-03-07T16:53:06.324Z,6.04
2023-03-07T16:58:20.552Z,6.04
2023-03-07T17:03:22.066Z,6.05
2023-03-07T17:08:23.914Z,6.05
2023-03-07T17:13:25.346Z,6.07
2023-03-07T17:18:29.476Z,6.08
2023-03-07T17:23:33.818Z,5.90
2023-03-07T17:28:35.392Z,5.48
2023-03-07T17:33:36.836Z,5.12
2023-03-07T17:38:38.650Z,4.76
2023-03-07T17:43:40.179Z,4.35
2023-03-07T17:48:41.606Z,3.97
2023-03-07T17:53:43.027Z,3.67
2023-03-07T17:58:44.431Z,3.42
2023-03-07T18:03:45.871Z,3.29
2023-03-07T18:08:47.355Z,3.15
2023-03-07T18:13:49.026Z,3.08
2023-03-07T18:18:59.316Z,3.13
2023-03-07T18:24:01.839Z,3.04
2023-03-07T18:29:04.369Z,2.87
2023-03-07T18:34:05.828Z,2.74
2023-03-07T18:39:08.470Z,2.58
2023-03-07T18:44:10.005Z,2.44
2023-03-07T18:49:11.583Z,2.41
2023-03-07T18:54:13.947Z,2.39
2023-03-07T18:59:16.615Z,2.44
2023-03-07T19:04:18.205Z,2.54
2023-03-07T19:09:20.341Z,2.71
2023-03-07T19:14:21.870Z,2.89
2023-03-07T19:19:23.278Z,2.98
2023-03-07T19:24:24.715Z,2.94
2023-03-07T19:29:26.161Z,2.96
2023-03-07T19:34:27.797Z,2.95
2023-03-07T19:39:29.201Z,2.89
2023-03-07T19:44:30.654Z,2.72
2023-03-07T19:49:32.097Z,2.66
2023-03-07T19:54:33.626Z,2.66
2023-03-07T19:59:35.044Z,2.65
2023-03-07T20:04:36.567Z,2.64
2023-03-07T20:09:38.123Z,2.66
2023-03-07T20:14:42.669Z,2.62
2023-03-07T20:19:44.232Z,2.58
2023-03-07T20:24:49.552Z,2.56
2023-03-07T20:29:51.412Z,2.54
2023-03-07T20:34:53.327Z,2.53
2023-03-07T20:39:55.571Z,2.53
2023-03-07T20:44:56.980Z,2.56
2023-03-07T20:49:58.389Z,2.59
2023-03-07T20:54:59.889Z,2.62
2023-03-07T21:00:01.316Z,2.66
2023-03-07T21:05:03.387Z,2.69
2023-03-07T21:10:05.003Z,2.68
2023-03-07T21:15:08.000Z,2.69
2023-03-07T21:20:10.375Z,2.66
2023-03-07T21:25:11.853Z,2.65
2023-03-07T21:30:13.466Z,2.69
2023-03-07T21:35:15.313Z,2.72
2023-03-07T21:40:16.951Z,2.75
2023-03-07T21:45:18.393Z,2.80
2023-03-07T21:50:20.027Z,2.88
2023-03-07T21:55:23.551Z,2.85
2023-03-07T22:00:25.070Z,2.90
2023-03-07T22:05:26.518Z,2.97
2023-03-07T22:10:27.912Z,2.95
2023-03-07T22:15:29.329Z,2.92
2023-03-07T22:20:30.903Z,2.91
2023-03-07T22:25:33.854Z,2.94
2023-03-07T22:30:35.629Z,3.06
2023-03-07T22:35:37.152Z,3.15
2023-03-07T22:40:39.349Z,3.18
2023-03-07T22:45:40.768Z,3.15
2023-03-07T22:50:42.428Z,3.08
2023-03-07T22:55:44.713Z,2.98
2023-03-07T23:00:46.212Z,2.98
2023-03-07T23:05:47.625Z,2.97
2023-03-07T23:10:49.050Z,2.74
2023-03-07T23:15:50.497Z,2.52
2023-03-07T23:20:51.960Z,2.29
2023-03-07T23:25:53.423Z,2.11
2023-03-07T23:30:54.836Z,2.01
2023-03-07T23:35:59.322Z,1.98
2023-03-07T23:41:00.842Z,1.95
2023-03-07T23:46:02.263Z,1.89
2023-03-07T23:51:03.842Z,1.88
2023-03-07T23:56:10.129Z,2.00
